sensor_id;sensor_type;location;lat;lon;timestamp;pressure;altitude;pressure_sealevel;temperature;humidity
71107;BME280;58763;47.982;11.516;2023-04-20T00:00:28;94018.75;;;4.69;84.76
71107;BME280;58763;47.982;11.516;2023-04-20T00:02:53;94013.66;;;4.72;84.99
71107;BME280;58763;47.982;11.516;2023-04-20T00:05:19;94005.56;;;4.67;85.13
71107;BME280;58763;47.982;11.516;2023-04-20T00:07:44;93998.34;;;4.68;85.22
71107;BME280;58763;47.982;11.516;2023-04-20T00:10:10;93989.34;;;4.79;84.68
71107;BME280;58763;47.982;11.516;2023-04-20T00:12:36;93984.75;;;4.74;84.60
71107;BME280;58763;47.982;11.516;2023-04-20T00:15:01;93992.03;;;4.79;85.05
71107;BME280;58763;47.982;11.516;2023-04-20T00:17:27;93996.38;;;4.85;84.65
71107;BME280;58763;47.982;11.516;2023-04-20T00:19:52;93980.34;;;4.90;84.73
71107;BME280;58763;47.982;11.516;2023-04-20T00:22:18;93980.38;;;4.95;83.85
71107;BME280;58763;47.982;11.516;2023-04-20T00:24:43;93968.63;;;4.64;84.47
71107;BME280;58763;47.982;11.516;2023-04-20T00:27:09;93963.03;;;4.71;84.64
71107;BME280;58763;47.982;11.516;2023-04-20T00:29:36;93965.84;;;4.86;84.23
71107;BME280;58763;47.982;11.516;2023-04-20T00:32:01;93954.31;;;4.85;84.25
71107;BME280;58763;47.982;11.516;2023-04-20T00:34:26;93956.19;;;4.85;84.36
71107;BME280;58763;47.982;11.516;2023-04-20T00:36:52;93946.25;;;4.80;84.45
71107;BME280;58763;47.982;11.516;2023-04-20T00:39:17;93946.25;;;4.80;84.59
71107;BME280;58763;47.982;11.516;2023-04-20T00:41:43;93947.25;;;4.74;84.64
71107;BME280;58763;47.982;11.516;2023-04-20T00:44:08;93945.44;;;4.80;84.86
71107;BME280;58763;47.982;11.516;2023-04-20T00:46:38;93946.81;;;4.82;84.76
71107;BME280;58763;47.982;11.516;2023-04-20T00:49:04;93940.41;;;4.88;83.85
71107;BME280;58763;47.982;11.516;2023-04-20T00:51:30;93942.63;;;4.97;83.90
71107;BME280;58763;47.982;11.516;2023-04-20T00:53:56;93930.78;;;4.93;83.92
71107;BME280;58763;47.982;11.516;2023-04-20T00:56:22;93929.19;;;4.92;84.09
71107;BME280;58763;47.982;11.516;2023-04-20T00:58:47;93917.88;;;4.84;84.64
71107;BME280;58763;47.982;11.516;2023-04-20T01:01:13;93923.78;;;4.86;84.86
71107;BME280;58763;47.982;11.516;2023-04-20T01:03:42;93923.19;;;4.79;84.44
71107;BME280;58763;47.982;11.516;2023-04-20T01:06:08;93923.31;;;4.63;84.22
71107;BME280;58763;47.982;11.516;2023-04-20T01:08:34;93910.69;;;4.58;84.77
71107;BME280;58763;47.982;11.516;2023-04-20T01:10:59;93909.97;;;4.68;84.49
71107;BME280;58763;47.982;11.516;2023-04-20T01:13:25;93898.81;;;4.81;84.07
71107;BME280;58763;47.982;11.516;2023-04-20T01:15:51;93902.13;;;4.93;83.66
71107;BME280;58763;47.982;11.516;2023-04-20T01:18:16;93901.25;;;4.82;83.74
71107;BME280;58763;47.982;11.516;2023-04-20T01:20:45;93900.81;;;4.96;83.69
71107;BME280;58763;47.982;11.516;2023-04-20T01:23:12;93895.75;;;4.99;82.92
71107;BME280;58763;47.982;11.516;2023-04-20T01:25:37;93890.09;;;4.96;82.84
71107;BME280;58763;47.982;11.516;2023-04-20T01:28:03;93897.03;;;4.92;82.99
71107;BME280;58763;47.982;11.516;2023-04-20T01:30:30;93886.56;;;4.85;83.23
71107;BME280;58763;47.982;11.516;2023-04-20T01:32:55;93882.75;;;4.81;83.67
71107;BME280;58763;47.982;11.516;2023-04-20T01:35:21;93886.75;;;4.78;83.01
71107;BME280;58763;47.982;11.516;2023-04-20T01:37:46;93888.16;;;4.86;83.02
71107;BME280;58763;47.982;11.516;2023-04-20T01:40:12;93879.28;;;4.80;82.86
71107;BME280;58763;47.982;11.516;2023-04-20T01:42:38;93874.72;;;4.81;83.05
71107;BME280;58763;47.982;11.516;2023-04-20T01:45:05;93874.41;;;4.72;83.06
71107;BME280;58763;47.982;11.516;2023-04-20T01:47:31;93881.28;;;4.63;83.30
71107;BME280;58763;47.982;11.516;2023-04-20T01:49:56;93883.38;;;4.56;83.41
71107;BME280;58763;47.982;11.516;2023-04-20T01:52:22;93883.84;;;4.48;83.86
71107;BME280;58763;47.982;11.516;2023-04-20T01:54:47;93884.88;;;4.42;84.07
71107;BME280;58763;47.982;11.516;2023-04-20T01:57:13;93872.88;;;4.50;84.29
71107;BME280;58763;47.982;11.516;2023-04-20T01:59:39;93870.81;;;4.57;84.07
71107;BME280;58763;47.982;11.516;2023-04-20T02:02:04;93873.69;;;4.50;83.96
71107;BME280;58763;47.982;11.516;2023-04-20T02:04:29;93869.91;;;4.46;84.20
71107;BME280;58763;47.982;11.516;2023-04-20T02:06:55;93856.47;;;4.41;84.63
71107;BME280;58763;47.982;11.516;2023-04-20T02:09:20;93862.34;;;4.38;84.70
71107;BME280;58763;47.982;11.516;2023-04-20T02:11:46;93863.94;;;4.39;84.77
71107;BME280;58763;47.982;11.516;2023-04-20T02:14:11;93861.75;;;4.31;84.90
71107;BME280;58763;47.982;11.516;2023-04-20T02:16:37;93867.28;;;4.19;85.63
71107;BME280;58763;47.982;11.516;2023-04-20T02:19:02;93870.00;;;4.25;85.43
71107;BME280;58763;47.982;11.516;2023-04-20T02:21:28;93871.09;;;4.29;85.52
71107;BME280;58763;47.982;11.516;2023-04-20T02:23:53;93860.44;;;4.34;85.10
71107;BME280;58763;47.982;11.516;2023-04-20T02:26:19;93858.31;;;4.36;84.83
71107;BME280;58763;47.982;11.516;2023-04-20T02:28:44;93863.34;;;4.32;85.16
71107;BME280;58763;47.982;11.516;2023-04-20T02:31:10;93857.84;;;4.12;85.51
71107;BME280;58763;47.982;11.516;2023-04-20T02:33:36;93857.88;;;4.17;85.17
71107;BME280;58763;47.982;11.516;2023-04-20T02:36:01;93858.53;;;4.02;85.63
71107;BME280;58763;47.982;11.516;2023-04-20T02:38:27;93847.81;;;3.76;85.95
71107;BME280;58763;47.982;11.516;2023-04-20T02:40:52;93852.06;;;3.72;86.37
71107;BME280;58763;47.982;11.516;2023-04-20T02:43:18;93841.38;;;3.72;86.71
71107;BME280;58763;47.982;11.516;2023-04-20T02:45:43;93843.59;;;3.53;86.99
71107;BME280;58763;47.982;11.516;2023-04-20T02:48:09;93842.16;;;3.45;87.63
71107;BME280;58763;47.982;11.516;2023-04-20T02:50:34;93839.88;;;3.54;87.45
71107;BME280;58763;47.982;11.516;2023-04-20T02:53:00;93828.66;;;3.57;87.51
71107;BME280;58763;47.982;11.516;2023-04-20T02:55:26;93832.19;;;3.63;87.57
71107;BME280;58763;47.982;11.516;2023-04-20T02:57:51;93826.41;;;3.71;87.25
71107;BME280;58763;47.982;11.516;2023-04-20T03:00:17;93819.69;;;3.68;86.79
71107;BME280;58763;47.982;11.516;2023-04-20T03:02:42;93821.28;;;3.69;86.85
71107;BME280;58763;47.982;11.516;2023-04-20T03:05:08;93821.25;;;3.64;87.11
71107;BME280;58763;47.982;11.516;2023-04-20T03:07:34;93817.09;;;3.73;87.11
71107;BME280;58763;47.982;11.516;2023-04-20T03:09:59;93812.44;;;3.64;87.27
71107;BME280;58763;47.982;11.516;2023-04-20T03:12:25;93814.44;;;3.52;87.59
71107;BME280;58763;47.982;11.516;2023-04-20T03:14:50;93817.13;;;3.52;87.58
71107;BME280;58763;47.982;11.516;2023-04-20T03:17:16;93809.22;;;3.62;87.35
71107;BME280;58763;47.982;11.516;2023-04-20T03:19:41;93812.50;;;3.74;87.37
71107;BME280;58763;47.982;11.516;2023-04-20T03:22:07;93818.41;;;3.76;86.66
71107;BME280;58763;47.982;11.516;2023-04-20T03:24:33;93813.06;;;3.76;86.63
71107;BME280;58763;47.982;11.516;2023-04-20T03:26:58;93802.41;;;3.81;86.38
71107;BME280;58763;47.982;11.516;2023-04-20T03:29:23;93799.19;;;3.79;86.44
71107;BME280;58763;47.982;11.516;2023-04-20T03:31:49;93798.03;;;3.70;86.42
71107;BME280;58763;47.982;11.516;2023-04-20T03:34:15;93802.66;;;3.53;86.82
71107;BME280;58763;47.982;11.516;2023-04-20T03:36:40;93810.75;;;3.58;87.05
71107;BME280;58763;47.982;11.516;2023-04-20T03:39:06;93799.81;;;3.59;87.23
71107;BME280;58763;47.982;11.516;2023-04-20T03:41:31;93796.00;;;3.50;87.43
71107;BME280;58763;47.982;11.516;2023-04-20T03:43:57;93803.75;;;3.52;87.59
71107;BME280;58763;47.982;11.516;2023-04-20T03:46:22;93806.41;;;3.52;87.90
71107;BME280;58763;47.982;11.516;2023-04-20T03:48:48;93808.06;;;3.58;87.37
71107;BME280;58763;47.982;11.516;2023-04-20T03:51:13;93800.97;;;3.68;87.15
71107;BME280;58763;47.982;11.516;2023-04-20T03:53:38;93797.84;;;3.76;87.17
71107;BME280;58763;47.982;11.516;2023-04-20T03:56:04;93794.63;;;3.74;86.78
71107;BME280;58763;47.982;11.516;2023-04-20T03:58:30;93797.50;;;3.68;87.09
71107;BME280;58763;47.982;11.516;2023-04-20T04:01:05;93787.28;;;3.65;87.32
71107;BME280;58763;47.982;11.516;2023-04-20T04:03:35;93788.31;;;3.59;87.44
71107;BME280;58763;47.982;11.516;2023-04-20T04:06:04;93782.09;;;3.53;87.86
71107;BME280;58763;47.982;11.516;2023-04-20T04:08:30;93785.72;;;3.42;88.35
71107;BME280;58763;47.982;11.516;2023-04-20T04:10:59;93782.72;;;3.33;88.67
71107;BME280;58763;47.982;11.516;2023-04-20T04:13:24;93778.72;;;3.36;88.70
71107;BME280;58763;47.982;11.516;2023-04-20T04:15:50;93776.63;;;3.38;88.69
71107;BME280;58763;47.982;11.516;2023-04-20T04:18:15;93770.13;;;3.34;88.70
71107;BME280;58763;47.982;11.516;2023-04-20T04:20:41;93770.13;;;3.34;88.93
71107;BME280;58763;47.982;11.516;2023-04-20T04:23:06;93774.16;;;3.36;88.94
71107;BME280;58763;47.982;11.516;2023-04-20T04:25:32;93765.00;;;3.27;88.99
71107;BME280;58763;47.982;11.516;2023-04-20T04:27:58;93772.94;;;3.22;89.08
71107;BME280;58763;47.982;11.516;2023-04-20T04:30:25;93781.97;;;3.38;89.30
71107;BME280;58763;47.982;11.516;2023-04-20T04:32:50;93779.34;;;3.43;88.93
71107;BME280;58763;47.982;11.516;2023-04-20T04:35:16;93771.63;;;3.46;88.80
71107;BME280;58763;47.982;11.516;2023-04-20T04:37:41;93771.06;;;3.44;88.63
71107;BME280;58763;47.982;11.516;2023-04-20T04:40:07;93769.81;;;3.52;88.63
71107;BME280;58763;47.982;11.516;2023-04-20T04:42:34;93765.78;;;3.49;88.72
71107;BME280;58763;47.982;11.516;2023-04-20T04:45:00;93766.22;;;3.41;88.84
71107;BME280;58763;47.982;11.516;2023-04-20T04:47:35;93765.59;;;3.34;89.15
71107;BME280;58763;47.982;11.516;2023-04-20T04:50:02;93756.00;;;3.33;89.33
71107;BME280;58763;47.982;11.516;2023-04-20T04:52:27;93752.59;;;3.16;89.97
71107;BME280;58763;47.982;11.516;2023-04-20T04:54:53;93759.09;;;3.04;90.19
71107;BME280;58763;47.982;11.516;2023-04-20T04:57:18;93755.19;;;3.11;90.50
71107;BME280;58763;47.982;11.516;2023-04-20T04:59:43;93764.31;;;3.15;90.43
71107;BME280;58763;47.982;11.516;2023-04-20T05:02:09;93767.38;;;3.02;90.86
71107;BME280;58763;47.982;11.516;2023-04-20T05:04:34;93768.63;;;2.95;90.60
71107;BME280;58763;47.982;11.516;2023-04-20T05:07:00;93773.09;;;2.89;90.53
71107;BME280;58763;47.982;11.516;2023-04-20T05:09:26;93769.38;;;2.90;90.70
71107;BME280;58763;47.982;11.516;2023-04-20T05:12:00;93773.72;;;2.96;90.66
71107;BME280;58763;47.982;11.516;2023-04-20T05:14:27;93778.06;;;3.02;90.30
71107;BME280;58763;47.982;11.516;2023-04-20T05:16:53;93777.19;;;2.97;90.42
71107;BME280;58763;47.982;11.516;2023-04-20T05:19:18;93775.81;;;2.94;90.61
71107;BME280;58763;47.982;11.516;2023-04-20T05:21:44;93777.78;;;2.99;90.13
71107;BME280;58763;47.982;11.516;2023-04-20T05:24:09;93774.84;;;3.00;90.60
71107;BME280;58763;47.982;11.516;2023-04-20T05:26:35;93769.38;;;2.90;91.05
71107;BME280;58763;47.982;11.516;2023-04-20T05:29:00;93774.28;;;2.98;90.79
71107;BME280;58763;47.982;11.516;2023-04-20T05:31:26;93773.91;;;3.11;90.60
71107;BME280;58763;47.982;11.516;2023-04-20T05:33:52;93765.88;;;3.11;90.33
71107;BME280;58763;47.982;11.516;2023-04-20T05:36:17;93773.16;;;3.16;90.28
71107;BME280;58763;47.982;11.516;2023-04-20T05:38:43;93765.44;;;3.19;90.08
71107;BME280;58763;47.982;11.516;2023-04-20T05:41:08;93763.16;;;3.06;90.48
71107;BME280;58763;47.982;11.516;2023-04-20T05:43:34;93755.88;;;3.02;90.70
71107;BME280;58763;47.982;11.516;2023-04-20T05:45:59;93763.59;;;2.98;91.05
71107;BME280;58763;47.982;11.516;2023-04-20T05:48:25;93760.75;;;3.05;91.16
71107;BME280;58763;47.982;11.516;2023-04-20T05:50:52;93755.25;;;3.16;90.54
71107;BME280;58763;47.982;11.516;2023-04-20T05:53:17;93764.84;;;3.12;90.60
71107;BME280;58763;47.982;11.516;2023-04-20T05:55:43;93764.09;;;3.17;90.83
71107;BME280;58763;47.982;11.516;2023-04-20T05:58:09;93759.78;;;3.16;90.47
71107;BME280;58763;47.982;11.516;2023-04-20T06:00:34;93770.72;;;3.14;90.64
71107;BME280;58763;47.982;11.516;2023-04-20T06:02:59;93758.41;;;3.13;90.63
71107;BME280;58763;47.982;11.516;2023-04-20T06:05:25;93757.38;;;3.14;90.46
71107;BME280;58763;47.982;11.516;2023-04-20T06:07:50;93746.69;;;3.14;91.31
71107;BME280;58763;47.982;11.516;2023-04-20T06:10:16;93754.84;;;3.29;90.99
71107;BME280;58763;47.982;11.516;2023-04-20T06:12:41;93750.31;;;3.30;90.72
71107;BME280;58763;47.982;11.516;2023-04-20T06:15:07;93744.13;;;3.24;91.85
71107;BME280;58763;47.982;11.516;2023-04-20T06:17:38;93748.16;;;3.27;91.18
71107;BME280;58763;47.982;11.516;2023-04-20T06:20:09;93733.41;;;3.19;90.88
71107;BME280;58763;47.982;11.516;2023-04-20T06:22:42;93732.16;;;3.05;90.91
71107;BME280;58763;47.982;11.516;2023-04-20T06:25:11;93728.69;;;3.05;91.24
71107;BME280;58763;47.982;11.516;2023-04-20T06:27:36;93727.59;;;3.01;91.18
71107;BME280;58763;47.982;11.516;2023-04-20T06:30:02;93726.50;;;3.02;91.87
71107;BME280;58763;47.982;11.516;2023-04-20T06:32:28;93728.34;;;2.96;91.81
71107;BME280;58763;47.982;11.516;2023-04-20T06:34:53;93742.03;;;3.05;92.00
71107;BME280;58763;47.982;11.516;2023-04-20T06:37:19;93729.50;;;3.05;92.02
71107;BME280;58763;47.982;11.516;2023-04-20T06:39:44;93723.09;;;3.06;91.85
71107;BME280;58763;47.982;11.516;2023-04-20T06:42:10;93729.50;;;3.05;92.06
71107;BME280;58763;47.982;11.516;2023-04-20T06:44:35;93728.94;;;3.03;92.29
71107;BME280;58763;47.982;11.516;2023-04-20T06:47:01;93722.28;;;3.06;92.60
71107;BME280;58763;47.982;11.516;2023-04-20T06:49:26;93725.19;;;3.04;92.45
71107;BME280;58763;47.982;11.516;2023-04-20T06:51:52;93728.69;;;3.05;92.49
71107;BME280;58763;47.982;11.516;2023-04-20T06:54:17;93724.91;;;3.01;92.48
71107;BME280;58763;47.982;11.516;2023-04-20T06:56:43;93725.13;;;2.99;92.66
71107;BME280;58763;47.982;11.516;2023-04-20T06:59:09;93724.84;;;2.96;93.04
71107;BME280;58763;47.982;11.516;2023-04-20T07:01:34;93715.63;;;3.08;92.84
71107;BME280;58763;47.982;11.516;2023-04-20T07:04:00;93720.41;;;3.06;92.35
71107;BME280;58763;47.982;11.516;2023-04-20T07:06:25;93723.56;;;3.25;92.55
71107;BME280;58763;47.982;11.516;2023-04-20T07:08:52;93728.28;;;3.18;91.67
71107;BME280;58763;47.982;11.516;2023-04-20T07:11:18;93721.34;;;3.17;91.82
71107;BME280;58763;47.982;11.516;2023-04-20T07:13:43;93724.06;;;3.22;91.56
71107;BME280;58763;47.982;11.516;2023-04-20T07:16:09;93721.09;;;3.18;91.04
71107;BME280;58763;47.982;11.516;2023-04-20T07:18:35;93733.63;;;3.18;90.93
71107;BME280;58763;47.982;11.516;2023-04-20T07:21:00;93734.91;;;3.10;91.45
71107;BME280;58763;47.982;11.516;2023-04-20T07:23:26;93738.69;;;3.14;91.75
71107;BME280;58763;47.982;11.516;2023-04-20T07:25:51;93742.56;;;3.28;91.68
71107;BME280;58763;47.982;11.516;2023-04-20T07:28:17;93740.41;;;3.25;90.73
71107;BME280;58763;47.982;11.516;2023-04-20T07:30:42;93747.28;;;3.43;90.59
71107;BME280;58763;47.982;11.516;2023-04-20T07:33:08;93749.13;;;3.42;90.40
71107;BME280;58763;47.982;11.516;2023-04-20T07:35:35;93749.41;;;3.46;90.58
71107;BME280;58763;47.982;11.516;2023-04-20T07:38:01;93751.84;;;3.47;90.64
71107;BME280;58763;47.982;11.516;2023-04-20T07:40:26;93762.72;;;3.41;90.33
71107;BME280;58763;47.982;11.516;2023-04-20T07:42:52;93754.38;;;3.32;90.47
71107;BME280;58763;47.982;11.516;2023-04-20T07:45:17;93755.72;;;3.35;90.04
71107;BME280;58763;47.982;11.516;2023-04-20T07:47:43;93758.47;;;3.18;90.38
71107;BME280;58763;47.982;11.516;2023-04-20T07:50:11;93760.66;;;3.21;91.00
71107;BME280;58763;47.982;11.516;2023-04-20T07:52:37;93756.38;;;3.20;91.31
71107;BME280;58763;47.982;11.516;2023-04-20T07:55:03;93751.06;;;3.25;90.64
71107;BME280;58763;47.982;11.516;2023-04-20T07:57:29;93743.00;;;3.20;90.55
71107;BME280;58763;47.982;11.516;2023-04-20T07:59:54;93743.56;;;3.22;90.84
71107;BME280;58763;47.982;11.516;2023-04-20T08:02:20;93734.38;;;3.13;91.19
71107;BME280;58763;47.982;11.516;2023-04-20T08:04:45;93743.41;;;3.07;91.30
71107;BME280;58763;47.982;11.516;2023-04-20T08:07:12;93736.50;;;3.11;91.56
71107;BME280;58763;47.982;11.516;2023-04-20T08:09:38;93737.59;;;3.15;91.55
71107;BME280;58763;47.982;11.516;2023-04-20T08:12:04;93747.53;;;3.20;91.48
71107;BME280;58763;47.982;11.516;2023-04-20T08:14:30;93746.50;;;3.21;92.27
71107;BME280;58763;47.982;11.516;2023-04-20T08:16:55;93741.56;;;3.34;91.87
71107;BME280;58763;47.982;11.516;2023-04-20T08:19:21;93743.84;;;3.47;91.54
71107;BME280;58763;47.982;11.516;2023-04-20T08:21:47;93747.13;;;3.60;90.97
71107;BME280;58763;47.982;11.516;2023-04-20T08:24:12;93749.31;;;3.63;89.99
71107;BME280;58763;47.982;11.516;2023-04-20T08:26:38;93740.25;;;3.64;90.10
71107;BME280;58763;47.982;11.516;2023-04-20T08:29:04;93740.88;;;3.76;89.98
71107;BME280;58763;47.982;11.516;2023-04-20T08:31:30;93735.03;;;3.79;90.19
71107;BME280;58763;47.982;11.516;2023-04-20T08:33:55;93739.97;;;3.92;89.55
71107;BME280;58763;47.982;11.516;2023-04-20T08:36:21;93747.13;;;3.86;88.64
71107;BME280;58763;47.982;11.516;2023-04-20T08:38:55;93745.44;;;3.75;88.02
71107;BME280;58763;47.982;11.516;2023-04-20T08:41:21;93744.34;;;3.76;88.67
71107;BME280;58763;47.982;11.516;2023-04-20T08:43:47;93739.38;;;3.58;88.87
71107;BME280;58763;47.982;11.516;2023-04-20T08:46:14;93740.53;;;3.67;89.20
71107;BME280;58763;47.982;11.516;2023-04-20T08:48:44;93736.34;;;3.76;89.50
71107;BME280;58763;47.982;11.516;2023-04-20T08:51:10;93738.78;;;3.83;89.08
71107;BME280;58763;47.982;11.516;2023-04-20T08:53:36;93749.09;;;3.96;89.03
71107;BME280;58763;47.982;11.516;2023-04-20T08:56:02;93738.94;;;3.98;89.07
71107;BME280;58763;47.982;11.516;2023-04-20T08:58:29;93742.66;;;3.97;89.50
71107;BME280;58763;47.982;11.516;2023-04-20T09:00:56;93737.91;;;4.04;88.81
71107;BME280;58763;47.982;11.516;2023-04-20T09:03:32;93754.06;;;4.19;88.66
71107;BME280;58763;47.982;11.516;2023-04-20T09:05:58;93753.19;;;4.08;87.95
71107;BME280;58763;47.982;11.516;2023-04-20T09:08:35;93754.94;;;4.30;88.19
71107;BME280;58763;47.982;11.516;2023-04-20T09:11:00;93756.38;;;4.42;87.14
71107;BME280;58763;47.982;11.516;2023-04-20T09:13:26;93761.72;;;4.42;87.08
71107;BME280;58763;47.982;11.516;2023-04-20T09:15:52;93774.84;;;4.44;87.02
71107;BME280;58763;47.982;11.516;2023-04-20T09:18:17;93774.97;;;4.59;86.63
71107;BME280;58763;47.982;11.516;2023-04-20T09:20:43;93750.34;;;4.67;86.32
71107;BME280;58763;47.982;11.516;2023-04-20T09:23:19;93753.81;;;4.57;85.77
71107;BME280;58763;47.982;11.516;2023-04-20T09:25:51;93753.69;;;4.42;86.61
71107;BME280;58763;47.982;11.516;2023-04-20T09:28:18;93746.78;;;4.51;86.97
71107;BME280;58763;47.982;11.516;2023-04-20T09:30:46;93751.03;;;4.42;87.86
71107;BME280;58763;47.982;11.516;2023-04-20T09:33:12;93747.75;;;4.35;87.11
71107;BME280;58763;47.982;11.516;2023-04-20T09:35:40;93760.09;;;4.36;87.81
71107;BME280;58763;47.982;11.516;2023-04-20T09:38:11;93750.75;;;4.44;87.81
71107;BME280;58763;47.982;11.516;2023-04-20T09:40:39;93742.13;;;4.32;87.06
71107;BME280;58763;47.982;11.516;2023-04-20T09:43:12;93736.78;;;4.32;88.06
71107;BME280;58763;47.982;11.516;2023-04-20T09:45:38;93727.41;;;4.34;87.72
71107;BME280;58763;47.982;11.516;2023-04-20T09:48:07;93730.19;;;4.49;87.61
71107;BME280;58763;47.982;11.516;2023-04-20T09:50:37;93736.13;;;4.56;87.13
71107;BME280;58763;47.982;11.516;2023-04-20T09:53:03;93738.00;;;4.61;86.31
71107;BME280;58763;47.982;11.516;2023-04-20T09:55:33;93735.41;;;4.71;87.40
71107;BME280;58763;47.982;11.516;2023-04-20T09:58:02;93744.22;;;4.71;86.13
71107;BME280;58763;47.982;11.516;2023-04-20T10:00:28;93741.00;;;4.69;85.98
71107;BME280;58763;47.982;11.516;2023-04-20T10:02:54;93748.25;;;4.74;85.32
71107;BME280;58763;47.982;11.516;2023-04-20T10:05:32;93734.63;;;4.75;84.65
71107;BME280;58763;47.982;11.516;2023-04-20T10:07:58;93748.25;;;4.74;85.65
71107;BME280;58763;47.982;11.516;2023-04-20T10:10:25;93741.34;;;4.88;85.10
71107;BME280;58763;47.982;11.516;2023-04-20T10:12:53;93739.09;;;4.65;84.38
71107;BME280;58763;47.982;11.516;2023-04-20T10:15:19;93729.78;;;4.72;85.49
71107;BME280;58763;47.982;11.516;2023-04-20T10:17:46;93735.63;;;4.69;85.51
71107;BME280;58763;47.982;11.516;2023-04-20T10:20:26;93736.75;;;4.73;86.11
71107;BME280;58763;47.982;11.516;2023-04-20T10:22:53;93738.41;;;4.84;85.73
71107;BME280;58763;47.982;11.516;2023-04-20T10:25:22;93739.44;;;4.73;86.26
71107;BME280;58763;47.982;11.516;2023-04-20T10:28:07;93733.75;;;4.65;86.18
71107;BME280;58763;47.982;11.516;2023-04-20T10:30:36;93728.06;;;4.51;86.80
71107;BME280;58763;47.982;11.516;2023-04-20T10:33:10;93724.84;;;4.49;87.08
71107;BME280;58763;47.982;11.516;2023-04-20T10:35:48;93733.72;;;4.55;87.69
71107;BME280;58763;47.982;11.516;2023-04-20T10:38:26;93723.22;;;4.48;87.98
71107;BME280;58763;47.982;11.516;2023-04-20T10:40:51;93717.41;;;4.61;87.59
71107;BME280;58763;47.982;11.516;2023-04-20T10:43:18;93714.97;;;4.60;87.22
71107;BME280;58763;47.982;11.516;2023-04-20T10:45:45;93732.38;;;4.57;87.20
71107;BME280;58763;47.982;11.516;2023-04-20T10:48:11;93720.69;;;4.73;86.81
71107;BME280;58763;47.982;11.516;2023-04-20T10:50:36;93721.78;;;4.82;87.04
71107;BME280;58763;47.982;11.516;2023-04-20T10:53:02;93704.16;;;4.92;87.03
71107;BME280;58763;47.982;11.516;2023-04-20T10:55:29;93698.28;;;5.00;86.22
71107;BME280;58763;47.982;11.516;2023-04-20T10:57:54;93684.59;;;4.96;85.72
71107;BME280;58763;47.982;11.516;2023-04-20T11:00:22;93687.00;;;4.93;85.78
71107;BME280;58763;47.982;11.516;2023-04-20T11:02:51;93690.00;;;5.01;85.40
71107;BME280;58763;47.982;11.516;2023-04-20T11:05:23;93702.75;;;4.79;86.32
71107;BME280;58763;47.982;11.516;2023-04-20T11:08:01;93692.84;;;4.79;87.33
71107;BME280;58763;47.982;11.516;2023-04-20T11:10:41;93689.63;;;4.77;87.93
71107;BME280;58763;47.982;11.516;2023-04-20T11:13:18;93683.47;;;4.82;88.37
71107;BME280;58763;47.982;11.516;2023-04-20T11:15:44;93684.84;;;4.84;87.53
71107;BME280;58763;47.982;11.516;2023-04-20T11:18:10;93684.81;;;4.79;87.80
71107;BME280;58763;47.982;11.516;2023-04-20T11:20:37;93676.00;;;4.89;87.61
71107;BME280;58763;47.982;11.516;2023-04-20T11:23:13;93676.06;;;4.99;87.30
71107;BME280;58763;47.982;11.516;2023-04-20T11:25:48;93673.63;;;4.98;86.44
71107;BME280;58763;47.982;11.516;2023-04-20T11:28:13;93673.09;;;5.01;86.88
71107;BME280;58763;47.982;11.516;2023-04-20T11:30:42;93675.28;;;5.19;87.04
71107;BME280;58763;47.982;11.516;2023-04-20T11:33:08;93670.78;;;5.29;86.66
71107;BME280;58763;47.982;11.516;2023-04-20T11:35:39;93674.25;;;5.40;86.11
71107;BME280;58763;47.982;11.516;2023-04-20T11:38:05;93666.75;;;5.42;85.35
71107;BME280;58763;47.982;11.516;2023-04-20T11:40:31;93657.91;;;5.36;84.63
71107;BME280;58763;47.982;11.516;2023-04-20T11:42:57;93654.41;;;5.26;85.55
71107;BME280;58763;47.982;11.516;2023-04-20T11:45:24;93656.00;;;5.37;86.18
71107;BME280;58763;47.982;11.516;2023-04-20T11:47:50;93658.72;;;5.47;85.26
71107;BME280;58763;47.982;11.516;2023-04-20T11:50:17;93663.25;;;5.46;85.18
71107;BME280;58763;47.982;11.516;2023-04-20T11:52:43;93668.38;;;5.58;84.63
71107;BME280;58763;47.982;11.516;2023-04-20T11:55:08;93664.63;;;5.64;83.79
71107;BME280;58763;47.982;11.516;2023-04-20T11:57:35;93668.38;;;5.68;83.07
71107;BME280;58763;47.982;11.516;2023-04-20T12:00:01;93674.03;;;5.62;82.66
71107;BME280;58763;47.982;11.516;2023-04-20T12:02:26;93672.69;;;5.64;83.74
71107;BME280;58763;47.982;11.516;2023-04-20T12:04:52;93663.28;;;5.51;83.54
71107;BME280;58763;47.982;11.516;2023-04-20T12:07:17;93663.03;;;5.53;83.94
71107;BME280;58763;47.982;11.516;2023-04-20T12:09:42;93659.00;;;5.45;83.66
71107;BME280;58763;47.982;11.516;2023-04-20T12:12:08;93665.16;;;5.41;84.48
71107;BME280;58763;47.982;11.516;2023-04-20T12:14:34;93664.88;;;5.47;84.91
71107;BME280;58763;47.982;11.516;2023-04-20T12:17:00;93653.38;;;5.52;84.75
71107;BME280;58763;47.982;11.516;2023-04-20T12:19:26;93643.69;;;5.51;84.73
71107;BME280;58763;47.982;11.516;2023-04-20T12:21:52;93648.00;;;5.62;84.76
71107;BME280;58763;47.982;11.516;2023-04-20T12:24:17;93646.41;;;5.61;84.34
71107;BME280;58763;47.982;11.516;2023-04-20T12:26:43;93648.53;;;5.59;84.88
71107;BME280;58763;47.982;11.516;2023-04-20T12:29:08;93644.75;;;5.40;84.49
71107;BME280;58763;47.982;11.516;2023-04-20T12:31:34;93645.84;;;5.54;85.11
71107;BME280;58763;47.982;11.516;2023-04-20T12:34:00;93639.97;;;5.52;84.22
71107;BME280;58763;47.982;11.516;2023-04-20T12:36:25;93640.47;;;5.49;84.84
71107;BME280;58763;47.982;11.516;2023-04-20T12:38:52;93638.34;;;5.56;84.92
71107;BME280;58763;47.982;11.516;2023-04-20T12:41:23;93635.94;;;5.54;84.64
71107;BME280;58763;47.982;11.516;2023-04-20T12:43:51;93638.06;;;5.63;84.42
71107;BME280;58763;47.982;11.516;2023-04-20T12:46:17;93640.50;;;5.64;84.56
71107;BME280;58763;47.982;11.516;2023-04-20T12:48:42;93635.94;;;5.80;84.44
71107;BME280;58763;47.982;11.516;2023-04-20T12:51:10;93637.84;;;5.89;83.40
71107;BME280;58763;47.982;11.516;2023-04-20T12:53:36;93628.97;;;5.89;83.41
71107;BME280;58763;47.982;11.516;2023-04-20T12:56:02;93631.94;;;5.97;83.02